Rodeo, New Mexico
Current Conditions -  °F | °C
As of 11:55 AM on Friday 31 Oct 2014 (Local Time) from KLSB Reporting Station
Clear Clear  
Wind Chill: 68°   Ceiling: Unl
Heat Index: 68°   Visibility: 10mi
Dew Point: 45°   Wind: 30mph
Humidity: 43%   Direction: 120°ESE
Pressure: 30.22"   Gusts: 38mph
Location:  31.83°N, 109.03°W
Report Text: KLSB 311755Z AUTO 12026G33KT 10SM CLR 20/07 A3022 RMK AO2
Loading
Personal Weather Stations






























Interactive Weather Map
Tropical Storm Tracking
New forecast layout! Learn more

10-Day Weather Forecast

Advertisements
Track Severe Weather on mobile